Time;durP1;ratioP1;P1;durP2;ratioP2;P2;SDS_P1;SDS_P2;PMS_P1;PMS_P2;Temp;Humidity;BMP_temperature;BMP_pressure;BME280_temperature;BME280_humidity;BME280_pressure;Samples;Min_cycle;Max_cycle;Signal;HPM_P1;HPM_P2
2022/01/16 00:04:24;;;;;;;36.17;18.83;;;0.20;83.50;;;-1.17;79.05;97160.09;4035716;33;20320;-87
2022/01/16 00:06:51;;;;;;;34.17;18.42;;;0.30;83.50;;;-1.17;79.33;97162.78;4052052;33;20294;-86
2022/01/16 00:09:17;;;;;;;32.90;19.35;;;0.30;84.40;;;-1.18;79.13;97171.84;4074652;33;20011;-87
2022/01/16 00:11:44;;;;;;;32.50;18.85;;;0.30;83.60;;;-1.20;79.56;97165.81;4051898;33;20293;-86
2022/01/16 00:14:10;;;;;;;33.92;18.13;;;0.20;83.50;;;-1.17;79.61;97184.28;4068649;33;20037;-86
2022/01/16 00:16:39;;;;;;;33.75;18.38;;;0.20;83.50;;;-1.18;79.32;97179.91;4079089;33;20271;-86
2022/01/16 00:19:05;;;;;;;33.67;19.20;;;0.20;83.40;;;-1.19;79.35;97162.97;4056674;33;20003;-86
2022/01/16 00:21:37;;;;;;;30.98;17.35;;;0.20;83.50;;;-1.18;79.21;97183.47;4009376;33;20263;-87
2022/01/16 00:24:04;;;;;;;33.55;18.88;;;0.20;83.50;;;-1.21;79.56;97169.50;4097614;33;20039;-87
2022/01/16 00:26:30;;;;;;;32.88;17.52;;;0.20;83.50;;;-1.18;79.12;97161.13;4030620;33;20011;-86
2022/01/16 00:29:01;;;;;;;32.17;18.25;;;0.20;83.50;;;-1.21;79.31;97159.63;4075090;33;20440;-87
2022/01/16 00:31:27;;;;;;;38.85;20.15;;;0.20;83.50;;;-1.19;79.19;97162.13;4075019;33;20405;-87
2022/01/16 00:33:54;;;;;;;35.10;19.65;;;0.20;83.50;;;-1.22;79.35;97152.56;4073861;33;20319;-87
2022/01/16 00:36:21;;;;;;;35.15;19.65;;;0.20;83.60;;;-1.23;79.30;97159.78;4051770;33;20669;-87
2022/01/16 00:38:49;;;;;;;37.58;20.40;;;0.20;83.50;;;-1.23;79.29;97192.00;4031085;33;20007;-86
2022/01/16 00:41:18;;;;;;;37.85;21.27;;;0.20;83.50;;;-1.20;79.42;97208.81;4074605;33;20011;-87
2022/01/16 00:43:44;;;;;;;44.38;21.90;;;0.20;83.30;;;-1.24;79.23;97217.22;4054587;33;20066;-86
2022/01/16 00:46:11;;;;;;;44.08;22.90;;;0.20;83.40;;;-1.21;79.37;97234.00;4055379;33;20344;-86
2022/01/16 00:48:37;;;;;;;39.92;22.35;;;0.20;83.40;;;-1.24;79.51;97211.84;4033588;33;19999;-87
2022/01/16 00:51:04;;;;;;;42.83;23.02;;;0.20;83.40;;;-1.21;79.12;97199.06;4054934;33;20396;-86
2022/01/16 00:53:30;;;;;;;43.45;22.42;;;0.20;83.40;;;-1.22;79.17;97192.88;4079794;33;20018;-86
2022/01/16 00:55:57;;;;;;;44.42;23.23;;;0.20;83.30;;;-1.24;79.46;97160.81;4074776;33;20293;-86
2022/01/16 00:58:23;;;;;;;46.95;25.20;;;0.20;83.30;;;-1.24;79.14;97152.75;4049940;33;20351;-87
2022/01/16 01:00:49;;;;;;;44.45;23.88;;;0.20;83.30;;;-1.24;79.52;97211.00;4027609;33;20271;-87
2022/01/16 01:03:16;;;;;;;44.70;24.25;;;0.20;83.50;;;-1.22;79.21;97187.50;4030574;33;20350;-86
2022/01/16 01:05:44;;;;;;;45.42;23.73;;;0.20;83.50;;;-1.24;79.21;97115.13;4031374;33;20282;-86
2022/01/16 01:08:10;;;;;;;44.55;23.63;;;0.20;83.50;;;-1.25;79.40;97139.47;4032487;33;20668;-87
2022/01/16 01:10:39;;;;;;;43.83;24.02;;;0.20;83.50;;;-1.25;79.26;97140.31;4054035;33;20299;-87
2022/01/16 01:13:12;;;;;;;44.22;23.77;;;0.20;83.60;;;-1.26;79.38;97036.56;4055438;33;20296;-86
2022/01/16 01:15:49;;;;;;;45.13;23.40;;;0.20;83.50;;;-1.26;79.35;97031.19;4076537;33;20279;-86
2022/01/16 01:18:17;;;;;;;45.05;24.42;;;0.20;83.50;;;-1.24;79.39;97068.63;4036600;33;20018;-86
2022/01/16 01:20:44;;;;;;;43.50;23.92;;;0.20;83.40;;;-1.29;79.32;97044.97;4091287;33;20009;-86
2022/01/16 01:23:11;;;;;;;46.60;23.13;;;0.20;83.50;;;-1.26;79.30;97058.06;4080438;33;20002;-86
2022/01/16 01:25:38;;;;;;;43.53;23.42;;;0.20;83.50;;;-1.27;79.26;97087.75;4079525;33;20078;-86
2022/01/16 01:28:06;;;;;;;44.67;22.85;;;0.20;83.50;;;-1.29;79.16;97096.00;4079723;33;20026;-85
2022/01/16 01:30:33;;;;;;;46.03;23.25;;;0.20;83.50;;;-1.27;79.43;97110.09;4068284;33;20284;-86
2022/01/16 01:33:00;;;;;;;40.03;22.48;;;0.20;83.60;;;-1.27;79.23;97142.34;4050617;33;20295;-86
2022/01/16 01:35:28;;;;;;;42.30;22.10;;;0.20;83.60;;;-1.29;79.47;97149.72;4050252;33;20081;-86
2022/01/16 01:37:54;;;;;;;41.22;21.08;;;0.20;83.50;;;-1.27;79.44;97120.84;4052045;33;20074;-86
2022/01/16 01:40:25;;;;;;;41.15;22.45;;;0.20;83.40;;;-1.29;79.24;97106.75;4050774;33;20430;-86
2022/01/16 01:51:15;;;;;;;35.97;20.77;;;0.10;83.50;;;-1.29;79.36;97120.19;4035348;33;20293;-86
2022/01/16 01:53:42;;;;;;;36.33;18.95;;;0.20;83.50;;;-1.28;79.10;97129.91;4066430;33;20626;-85
2022/01/16 01:56:12;;;;;;;34.95;20.30;;;0.10;83.50;;;-1.31;79.54;97119.50;4044993;33;20022;-86
2022/01/16 01:58:40;;;;;;;34.90;18.92;;;0.10;83.60;;;-1.30;79.04;97126.56;4048178;33;20070;-86
2022/01/16 02:01:07;;;;;;;34.30;17.95;;;0.10;83.30;;;-1.31;78.99;97127.56;4029892;33;20311;-86
2022/01/16 02:06:23;;;;;;;33.70;18.08;;;0.10;83.20;;;-1.31;79.29;97141.00;4013902;33;20382;-85
2022/01/16 02:08:55;;;;;;;31.60;17.60;;;0.10;83.30;;;-1.31;79.06;97150.91;4052849;33;20587;-85
2022/01/16 02:11:28;;;;;;;35.60;17.27;;;0.10;83.10;;;-1.30;78.85;97168.72;4078164;33;20320;-85
2022/01/16 02:29:24;;;;;;;26.48;15.30;;;0.10;83.00;;;-1.34;78.85;97157.44;4117133;33;20094;-85
2022/01/16 02:31:28;;;;;;;29.30;16.45;;;0.10;83.20;;;-1.33;79.30;97156.44;4067504;33;19992;-85
2022/01/16 02:36:47;;;;;;;30.13;15.60;;;0.10;83.30;;;-1.34;79.13;97156.63;4064696;33;20280;-86
2022/01/16 02:39:14;;;;;;;29.95;15.85;;;0.10;83.40;;;-1.35;78.86;97157.63;4079693;33;20003;-86
2022/01/16 02:41:41;;;;;;;26.63;14.88;;;0.10;83.40;;;-1.34;78.92;97154.75;4099239;33;20010;-86
2022/01/16 02:44:21;;;;;;;27.33;15.25;;;0.10;83.30;;;-1.37;79.28;97147.06;4076353;33;20274;-86
2022/01/16 02:46:48;;;;;;;27.83;15.05;;;0.10;83.30;;;-1.35;79.35;97158.47;4083674;33;20657;-86
2022/01/16 02:49:27;;;;;;;25.15;14.57;;;0.10;83.50;;;-1.36;79.20;97156.81;4097383;33;20318;-85
2022/01/16 02:52:07;;;;;;;25.70;14.65;;;0.10;83.40;;;-1.35;79.17;97160.31;4076065;33;20288;-86
2022/01/16 02:54:36;;;;;;;27.98;15.30;;;0.10;83.40;;;-1.37;79.00;97148.91;4053356;33;20003;-86
2022/01/16 02:57:04;;;;;;;25.98;15.07;;;0.10;83.30;;;-1.37;79.03;97147.06;4099489;33;20018;-86
2022/01/16 02:59:31;;;;;;;25.30;14.15;;;0.10;83.20;;;-1.39;79.14;97155.28;4076196;33;20528;-85
2022/01/16 03:01:57;;;;;;;29.10;15.30;;;0.10;83.10;;;-1.37;78.96;97163.19;4076150;33;20442;-85
2022/01/16 03:04:24;;;;;;;25.85;14.20;;;0.10;83.10;;;-1.40;79.11;97158.97;4075921;33;20379;-86
2022/01/16 03:06:51;;;;;;;26.48;14.27;;;0.10;83.40;;;-1.37;79.22;97165.88;4097645;33;20702;-86
2022/01/16 03:09:19;;;;;;;28.50;14.98;;;0.10;83.30;;;-1.38;79.11;97161.50;4052558;33;20294;-85
2022/01/16 03:11:47;;;;;;;25.42;13.32;;;0.10;83.30;;;-1.37;78.80;97157.81;4096176;33;20074;-86
2022/01/16 03:14:17;;;;;;;25.25;14.50;;;0.10;83.00;;;-1.39;79.28;97165.19;4073399;33;20640;-86
2022/01/16 03:16:48;;;;;;;25.67;14.13;;;0.10;83.20;;;-1.41;79.02;97153.78;4096177;33;20292;-85
2022/01/16 03:22:03;;;;;;;25.02;14.57;;;0.10;83.20;;;-1.39;79.11;97159.84;4084561;33;20286;-86
2022/01/16 03:24:43;;;;;;;26.45;13.40;;;0.00;83.20;;;-1.42;79.15;97157.47;4052437;33;20380;-85
2022/01/16 03:27:17;;;;;;;26.25;13.75;;;0.00;83.30;;;-1.40;78.97;97158.16;4099971;33;20821;-85
2022/01/16 03:29:50;;;;;;;26.50;14.30;;;0.00;83.10;;;-1.42;79.31;97154.78;4073347;33;20284;-85
2022/01/16 03:32:19;;;;;;;24.27;14.43;;;0.00;83.30;;;-1.41;78.93;97151.09;4051970;33;20003;-85
2022/01/16 03:34:46;;;;;;;23.85;13.00;;;0.00;83.10;;;-1.44;79.20;97144.22;4073530;33;20305;-85
2022/01/16 03:37:12;;;;;;;24.77;13.32;;;0.00;83.20;;;-1.42;79.26;97146.75;4051557;33;20062;-85
2022/01/16 03:39:39;;;;;;;24.67;13.25;;;0.00;83.30;;;-1.45;79.07;97139.00;4073771;33;20381;-85
2022/01/16 03:42:07;;;;;;;23.50;13.25;;;0.00;83.10;;;-1.44;79.28;97140.69;4074000;33;20038;-85
2022/01/16 03:44:33;;;;;;;25.10;13.57;;;0.00;83.30;;;-1.42;78.92;97149.41;4053103;33;20071;-86
2022/01/16 03:47:00;;;;;;;26.23;14.43;;;0.00;83.20;;;-1.45;79.07;97152.44;4098032;33;20470;-86
2022/01/16 03:49:28;;;;;;;25.67;13.57;;;0.00;83.20;;;-1.46;79.43;97153.44;4076060;33;20094;-86
2022/01/16 03:51:56;;;;;;;25.13;13.82;;;0.00;83.20;;;-1.43;78.98;97155.81;4076561;33;20284;-86
2022/01/16 03:54:30;;;;;;;22.83;12.90;;;0.00;83.20;;;-1.44;79.21;97159.50;4075572;33;20181;-85
2022/01/16 03:56:58;;;;;;;25.50;14.32;;;0.00;83.30;;;-1.46;79.19;97150.75;4053272;33;20015;-86
2022/01/16 03:59:24;;;;;;;21.95;12.68;;;0.00;83.20;;;-1.45;79.39;97155.13;4073047;33;20011;-86
2022/01/16 04:01:51;;;;;;;27.02;14.55;;;0.00;83.30;;;-1.46;78.96;97164.19;4073201;33;20265;-86
2022/01/16 04:04:17;;;;;;;27.05;14.73;;;0.00;83.20;;;-1.46;79.57;97174.94;4071797;33;20011;-85
2022/01/16 04:06:44;;;;;;;26.65;13.77;;;0.00;83.30;;;-1.47;78.93;97179.47;4072761;33;20266;-86
2022/01/16 04:09:10;;;;;;;25.42;12.85;;;0.00;83.00;;;-1.47;79.12;97190.22;4072635;33;20206;-86
2022/01/16 04:11:44;;;;;;;23.00;12.80;;;0.00;83.30;;;-1.46;79.04;97194.59;4072349;33;20377;-86
2022/01/16 04:14:16;;;;;;;22.45;12.73;;;0.00;83.20;;;-1.47;78.96;97195.59;4074493;33;20321;-87
2022/01/16 04:16:42;;;;;;;25.27;12.88;;;0.00;83.10;;;-1.46;78.83;97201.78;4073282;33;19998;-86
2022/01/16 04:19:09;;;;;;;23.08;12.95;;;0.00;83.10;;;-1.47;79.14;97200.97;4066103;33;20559;-87
2022/01/16 04:21:35;;;;;;;22.15;13.70;;;0.00;83.20;;;-1.47;79.18;97206.34;4049330;33;20003;-87
2022/01/16 04:24:02;;;;;;;23.45;12.70;;;0.00;83.40;;;-1.48;79.42;97206.47;4028133;33;20299;-87
2022/01/16 04:26:28;;;;;;;27.63;14.00;;;0.00;83.30;;;-1.49;79.38;97207.53;4027690;33;20101;-87
2022/01/16 04:28:55;;;;;;;25.95;13.65;;;0.00;83.20;;;-1.49;79.22;97212.91;4028004;33;20285;-87
2022/01/16 04:31:21;;;;;;;27.00;13.55;;;0.00;83.20;;;-1.50;78.73;97216.59;4049413;33;19999;-87
2022/01/16 04:33:48;;;;;;;27.90;14.02;;;0.00;83.00;;;-1.49;79.15;97219.09;4062096;33;20301;-85
2022/01/16 04:36:14;;;;;;;28.55;14.73;;;0.00;83.00;;;-1.50;79.30;97227.31;4029960;33;20010;-83
2022/01/16 04:38:46;;;;;;;24.30;13.27;;;-0.10;83.30;;;-1.51;79.21;97222.97;4075234;33;20626;-85
2022/01/16 04:43:58;;;;;;;28.05;16.00;;;0.00;83.20;;;-1.52;78.91;97224.78;4057677;33;20187;-85
2022/01/16 04:46:30;;;;;;;31.75;16.25;;;0.00;83.10;;;-1.50;78.68;97221.94;4065885;33;20310;-84
2022/01/16 04:48:57;;;;;;;30.38;15.43;;;-0.10;83.20;;;-1.51;78.99;97210.34;4065363;33;20166;-85
2022/01/16 04:51:25;;;;;;;30.83;15.23;;;-0.10;83.10;;;-1.51;78.92;97209.53;4110322;33;20285;-86
2022/01/16 04:53:51;;;;;;;32.47;17.00;;;-0.10;83.20;;;-1.52;79.15;97214.03;4043694;33;20072;-86
2022/01/16 04:57:58;;;;;;;28.40;15.65;;;-0.10;83.20;;;-1.50;79.27;97211.22;4023830;33;20265;-86
2022/01/16 05:00:50;;;;;;;28.42;15.02;;;-0.10;83.20;;;-1.51;79.16;97206.84;4427259;28;20060;-86
2022/01/16 05:03:16;;;;;;;29.80;16.08;;;-0.10;83.20;;;-1.52;78.92;97207.84;4120036;33;20284;-85
2022/01/16 05:05:43;;;;;;;25.92;15.05;;;-0.10;83.30;;;-1.52;78.99;97213.22;4094621;33;20788;-85
2022/01/16 05:08:11;;;;;;;27.02;15.13;;;-0.10;83.20;;;-1.53;79.07;97224.97;4094419;33;20301;-86
2022/01/16 05:10:38;;;;;;;27.55;15.00;;;-0.10;83.30;;;-1.54;78.73;97221.44;4089321;33;20257;-86
2022/01/16 05:18:36;;;;;;;27.98;15.10;;;-0.10;83.20;;;-1.56;78.85;97213.56;4037386;33;20053;-87
2022/01/16 05:21:05;;;;;;;28.83;14.82;;;-0.10;83.20;;;-1.56;79.09;97218.09;4045664;33;20278;-86
2022/01/16 05:23:34;;;;;;;27.38;15.68;;;-0.10;83.20;;;-1.58;79.19;97212.88;4092188;33;20298;-86
2022/01/16 05:26:01;;;;;;;27.48;15.43;;;-0.10;83.20;;;-1.56;79.17;97218.09;4027125;33;20283;-86
2022/01/16 05:28:28;;;;;;;29.10;15.13;;;-0.10;83.30;;;-1.58;79.12;97220.94;4027037;33;20318;-87
2022/01/16 05:30:54;;;;;;;27.95;15.30;;;-0.10;83.30;;;-1.59;79.23;97219.25;4057379;33;20014;-86
2022/01/16 05:33:21;;;;;;;28.52;15.32;;;-0.10;83.20;;;-1.59;78.87;97226.47;4077246;33;20288;-86
2022/01/16 05:35:47;;;;;;;30.45;15.50;;;-0.10;83.30;;;-1.60;79.33;97222.13;4050796;33;20293;-86
2022/01/16 05:38:13;;;;;;;27.95;14.57;;;-0.10;83.20;;;-1.60;79.00;97228.31;4048793;33;20038;-86
2022/01/16 05:40:40;;;;;;;30.35;14.73;;;-0.10;83.20;;;-1.59;78.98;97234.53;4048896;33;20293;-86
2022/01/16 05:43:06;;;;;;;26.80;14.75;;;-0.10;83.30;;;-1.58;79.23;97245.09;4030655;33;20196;-85
2022/01/16 05:45:33;;;;;;;28.13;14.98;;;-0.10;83.30;;;-1.59;79.35;97239.91;4028183;33;20766;-86
2022/01/16 05:47:59;;;;;;;28.08;15.93;;;-0.10;83.40;;;-1.58;79.22;97241.59;4021900;33;20011;-86
2022/01/16 05:50:25;;;;;;;25.73;14.90;;;-0.10;83.40;;;-1.61;79.13;97242.75;4049206;33;20018;-86
2022/01/16 05:52:52;;;;;;;25.90;14.48;;;-0.10;83.20;;;-1.60;79.22;97247.09;4049688;33;20318;-86
2022/01/16 05:55:18;;;;;;;26.60;15.48;;;-0.10;83.40;;;-1.60;79.25;97248.97;4049442;33;20033;-85
2022/01/16 05:57:45;;;;;;;29.65;16.95;;;-0.10;83.30;;;-1.61;79.28;97248.13;4071458;33;20284;-86
2022/01/16 06:00:13;;;;;;;27.17;14.40;;;-0.10;83.30;;;-1.61;79.19;97252.66;4049617;33;19991;-86
2022/01/16 06:02:41;;;;;;;27.40;15.02;;;-0.20;83.20;;;-1.63;79.35;97255.53;4050328;33;20305;-85
2022/01/16 06:05:08;;;;;;;27.50;15.32;;;-0.20;83.20;;;-1.63;79.23;97263.56;4028316;33;20287;-86
2022/01/16 06:07:35;;;;;;;31.58;16.85;;;-0.20;83.10;;;-1.63;78.94;97265.41;4050040;33;20354;-86
2022/01/16 06:10:02;;;;;;;29.48;16.85;;;-0.20;83.10;;;-1.61;78.96;97268.78;4049997;33;20068;-87
2022/01/16 06:12:28;;;;;;;32.70;16.52;;;-0.10;83.10;;;-1.59;79.38;97269.44;4027371;33;20010;-86
2022/01/16 06:14:55;;;;;;;30.63;17.02;;;-0.20;83.20;;;-1.59;79.06;97272.13;4071935;33;20653;-86
2022/01/16 06:17:21;;;;;;;31.92;17.20;;;-0.10;83.20;;;-1.57;79.00;97270.94;4071264;33;20192;-86
2022/01/16 06:19:47;;;;;;;28.67;17.63;;;-0.10;83.20;;;-1.57;78.59;97268.25;4049600;33;20318;-86
2022/01/16 06:22:13;;;;;;;29.83;16.88;;;-0.10;83.10;;;-1.55;78.73;97263.56;4048423;33;20322;-87
2022/01/16 06:24:40;;;;;;;33.75;18.15;;;-0.10;83.10;;;-1.49;79.15;97271.97;4052895;33;21827;-87
2022/01/16 06:27:06;;;;;;;32.50;18.40;;;0.00;83.10;;;-1.47;78.85;97265.41;4075806;33;20022;-87
2022/01/16 06:29:32;;;;;;;31.65;18.95;;;0.00;82.80;;;-1.44;78.67;97267.78;4058855;33;20304;-85
2022/01/16 06:31:59;;;;;;;29.17;17.17;;;0.00;82.60;;;-1.40;78.45;97273.66;4058295;33;20298;-85
2022/01/16 06:34:25;;;;;;;29.10;17.77;;;0.00;82.40;;;-1.38;78.24;97263.56;4083887;33;20013;-84
2022/01/16 06:36:51;;;;;;;31.50;17.83;;;0.10;82.40;;;-1.36;78.40;97266.94;4082954;33;20012;-85
2022/01/16 06:39:18;;;;;;;35.47;19.02;;;0.10;82.40;;;-1.34;78.26;97267.59;4083553;33;20276;-86
2022/01/16 06:41:44;;;;;;;32.13;17.95;;;0.10;82.30;;;-1.29;78.31;97261.72;4104731;33;20009;-87
2022/01/16 06:44:10;;;;;;;34.72;18.63;;;0.10;82.30;;;-1.26;78.19;97269.44;4105373;33;20663;-86
2022/01/16 06:46:37;;;;;;;31.10;17.75;;;0.20;82.10;;;-1.26;77.89;97267.59;4105706;33;20282;-86
2022/01/16 06:49:03;;;;;;;34.90;20.10;;;0.20;82.00;;;-1.25;78.27;97263.91;4060705;33;20061;-87
2022/01/16 06:51:29;;;;;;;36.45;21.15;;;0.20;81.90;;;-1.23;77.69;97269.09;4082660;33;20017;-87
2022/01/16 06:53:57;;;;;;;39.80;21.70;;;0.20;81.80;;;-1.20;77.78;97275.97;4082383;33;20340;-87
2022/01/16 06:56:24;;;;;;;36.35;21.55;;;0.20;81.70;;;-1.19;77.90;97280.34;4103496;33;19994;-87
2022/01/16 06:58:50;;;;;;;38.33;23.02;;;0.30;81.80;;;-1.19;78.01;97274.97;4103650;33;20002;-86
2022/01/16 07:01:17;;;;;;;43.72;24.38;;;0.30;81.60;;;-1.17;77.41;97275.63;4081000;33;20288;-87
2022/01/16 07:03:43;;;;;;;42.40;25.17;;;0.30;81.60;;;-1.17;77.72;97281.00;4081451;33;20009;-87
2022/01/16 07:06:10;;;;;;;42.42;24.30;;;0.30;81.50;;;-1.18;77.52;97269.44;4081963;33;20935;-87
2022/01/16 07:08:36;;;;;;;46.75;26.80;;;0.30;81.50;;;-1.17;77.86;97275.63;4078666;33;20336;-87
2022/01/16 07:11:03;;;;;;;46.70;27.25;;;0.30;81.50;;;-1.15;77.38;97262.88;4076061;33;20310;-87
2022/01/16 07:13:29;;;;;;;48.10;27.27;;;0.30;81.40;;;-1.14;77.65;97259.19;4055810;33;20354;-87
2022/01/16 07:15:56;;;;;;;55.20;29.38;;;0.30;81.50;;;-1.14;77.15;97256.50;4078756;33;20210;-87
2022/01/16 07:18:22;;;;;;;50.90;28.95;;;0.30;81.40;;;-1.12;77.85;97270.59;4056735;33;20083;-87
2022/01/16 07:20:49;;;;;;;50.30;29.10;;;0.30;81.40;;;-1.12;77.11;97267.91;4056402;33;20263;-87
2022/01/16 07:23:16;;;;;;;51.42;29.92;;;0.30;81.40;;;-1.10;77.38;97277.47;4035147;33;20325;-86
2022/01/16 07:25:43;;;;;;;53.70;30.67;;;0.40;81.50;;;-1.08;77.22;97271.91;4057767;33;20301;-87
2022/01/16 07:28:09;;;;;;;52.60;32.17;;;0.40;81.30;;;-1.05;77.42;97279.66;4080899;33;20061;-87
2022/01/16 07:30:36;;;;;;;52.72;31.35;;;0.40;81.20;;;-1.04;77.25;97281.34;4057952;33;20603;-86
2022/01/16 07:33:07;;;;;;;54.67;32.83;;;0.40;81.30;;;-1.02;77.32;97290.06;4057187;33;20704;-87
2022/01/16 07:35:33;;;;;;;56.28;34.00;;;0.40;81.20;;;-0.99;77.26;97291.56;4056767;33;20093;-87
2022/01/16 07:38:00;;;;;;;57.45;32.97;;;0.40;81.10;;;-1.01;77.37;97278.31;4033782;33;20306;-87
2022/01/16 07:40:27;;;;;;;53.55;32.38;;;0.40;81.00;;;-0.97;77.20;97285.00;4076177;33;20395;-86
2022/01/16 07:42:54;;;;;;;57.60;33.28;;;0.50;81.20;;;-0.95;76.92;97285.69;4054510;33;20014;-87
2022/01/16 07:45:21;;;;;;;57.47;34.92;;;0.50;81.10;;;-0.95;76.96;97282.16;4026683;33;20067;-87
2022/01/16 07:47:47;;;;;;;55.17;33.08;;;0.50;80.90;;;-0.91;76.81;97279.97;4093818;33;20283;-87
2022/01/16 07:50:15;;;;;;;56.35;34.88;;;0.50;81.00;;;-0.90;76.62;97279.78;4051746;33;19998;-87
2022/01/16 07:52:41;;;;;;;57.65;34.63;;;0.50;80.90;;;-0.85;76.78;97281.97;4074859;33;20298;-87
2022/01/16 07:55:08;;;;;;;54.35;33.05;;;0.50;80.90;;;-0.82;76.90;97289.69;4074219;33;20235;-86
2022/01/16 07:57:34;;;;;;;59.45;36.10;;;0.60;80.80;;;-0.82;76.88;97284.31;4093739;33;20021;-87
2022/01/16 08:00:01;;;;;;;54.08;33.70;;;0.60;80.80;;;-0.79;76.90;97289.34;4071795;33;20712;-87
2022/01/16 08:02:27;;;;;;;58.90;34.40;;;0.60;80.80;;;-0.79;76.78;97283.97;4076532;33;20249;-87
2022/01/16 08:04:54;;;;;;;56.00;33.95;;;0.60;80.70;;;-0.78;76.61;97280.28;4044489;33;20539;-87
2022/01/16 08:07:43;;;;;;;56.03;34.35;;;0.60;80.70;;;-0.74;76.77;97276.25;4065773;33;20279;-87
2022/01/16 08:11:25;;;;;;;52.03;32.15;;;0.70;80.90;;;-0.68;76.48;97286.28;4079782;33;20281;-88
2022/01/16 08:13:52;;;;;;;51.10;31.75;;;0.70;80.80;;;-0.65;76.62;97282.44;4098588;33;20277;-87
2022/01/16 08:17:26;;;;;;;53.67;31.52;;;0.70;80.70;;;-0.59;76.41;97292.50;4062320;33;20360;-88
2022/01/16 08:19:53;;;;;;;54.70;32.22;;;0.80;80.60;;;-0.58;76.50;97279.91;4061032;33;20564;-87
2022/01/16 08:22:19;;;;;;;53.42;32.97;;;0.80;80.50;;;-0.52;76.57;97279.19;4057789;33;20167;-86
2022/01/16 08:24:45;;;;;;;50.67;33.08;;;0.80;80.50;;;-0.49;76.55;97273.47;4063384;33;19999;-87
2022/01/16 08:27:13;;;;;;;53.22;31.23;;;0.90;80.70;;;-0.47;76.47;97272.28;4016778;33;20295;-87
2022/01/16 08:29:39;;;;;;;59.10;32.75;;;0.90;80.70;;;-0.43;76.73;97261.19;4020995;33;20011;-88
2022/01/16 08:32:07;;;;;;;55.90;33.50;;;0.90;80.60;;;-0.39;76.67;97274.09;4037492;34;20314;-87
2022/01/16 08:34:33;;;;;;;57.22;31.30;;;1.00;80.50;;;-0.39;76.39;97278.66;4059127;34;19984;-87
2022/01/16 08:36:59;;;;;;;52.53;31.23;;;1.00;80.40;;;-0.36;76.52;97273.75;4037013;34;20030;-87
2022/01/16 08:39:26;;;;;;;47.28;29.48;;;1.00;80.20;;;-0.36;75.88;97276.44;4090695;33;20263;-87
2022/01/16 08:41:52;;;;;;;49.78;29.15;;;1.00;80.10;;;-0.34;76.22;97268.19;4051902;33;20013;-87
2022/01/16 08:44:19;;;;;;;48.75;29.60;;;1.00;80.00;;;-0.33;76.04;97276.09;4098003;33;20394;-87
2022/01/16 08:46:46;;;;;;;45.00;29.08;;;1.10;80.10;;;-0.30;75.86;97272.22;4103333;33;20033;-87
2022/01/16 08:49:13;;;;;;;42.92;27.23;;;1.10;80.10;;;-0.27;75.71;97279.94;4058421;33;19994;-87
2022/01/16 08:51:40;;;;;;;43.78;26.67;;;1.10;80.00;;;-0.28;75.94;97266.66;4057954;33;20279;-87
2022/01/16 08:54:06;;;;;;;44.10;28.27;;;1.10;80.00;;;-0.29;75.83;97264.97;4080248;33;19994;-87
2022/01/16 08:56:33;;;;;;;47.72;28.30;;;1.10;80.00;;;-0.33;76.14;97265.34;4103348;33;20306;-87
2022/01/16 08:58:59;;;;;;;42.42;26.85;;;1.10;79.90;;;-0.29;76.04;97256.91;4054746;33;20124;-87
2022/01/16 09:01:26;;;;;;;44.08;26.55;;;1.10;80.00;;;-0.29;75.75;97254.22;4074520;33;20398;-87
2022/01/16 09:03:52;;;;;;;43.03;26.58;;;1.10;80.00;;;-0.31;76.24;97252.53;4099317;33;19994;-87
2022/01/16 09:06:19;;;;;;;45.22;26.65;;;1.10;80.10;;;-0.28;75.93;97253.19;4080779;33;20398;-87
2022/01/16 09:08:46;;;;;;;43.55;25.13;;;1.10;80.00;;;-0.26;75.84;97251.16;4058797;33;20294;-87
2022/01/16 09:11:12;;;;;;;44.03;26.77;;;1.10;79.90;;;-0.25;76.34;97242.09;4101844;33;20367;-87
2022/01/16 09:18:20;;;;;;;38.80;24.90;;;1.20;79.80;;;-0.20;75.74;97240.53;4151546;33;20280;-87
2022/01/16 09:20:46;;;;;;;38.67;24.75;;;1.20;79.70;;;-0.20;76.04;97240.53;4059815;33;19982;-87
2022/01/16 09:23:13;;;;;;;36.53;23.17;;;1.20;79.70;;;-0.19;75.74;97241.38;4105245;33;20299;-87
2022/01/16 09:25:39;;;;;;;36.55;23.40;;;1.20;79.70;;;-0.19;75.72;97238.69;4084632;33;20601;-86
2022/01/16 09:28:05;;;;;;;38.22;23.77;;;1.20;79.60;;;-0.19;75.79;97225.22;4084331;33;20004;-86
2022/01/16 09:30:32;;;;;;;37.72;22.60;;;1.20;79.60;;;-0.21;75.79;97216.50;4105946;33;20642;-86
2022/01/16 09:32:58;;;;;;;38.80;23.20;;;1.20;79.60;;;-0.20;75.98;97218.19;4072608;33;20003;-87
2022/01/16 09:35:25;;;;;;;34.53;22.17;;;1.20;79.60;;;-0.20;75.88;97215.50;4074336;33;20286;-86
2022/01/16 09:37:52;;;;;;;33.38;21.90;;;1.20;79.60;;;-0.20;75.95;97207.44;4052297;33;20085;-86
2022/01/16 09:40:20;;;;;;;34.65;22.05;;;1.20;79.60;;;-0.23;75.87;97203.22;4030416;33;20088;-86
2022/01/16 09:42:48;;;;;;;36.85;21.85;;;1.20;79.60;;;-0.23;75.87;97202.41;4079005;33;20252;-86
2022/01/16 09:45:17;;;;;;;34.85;21.30;;;1.20;79.60;;;-0.22;76.17;97206.75;4084806;33;20085;-85
2022/01/16 09:47:47;;;;;;;34.08;20.83;;;1.20;79.60;;;-0.25;75.99;97194.47;4082914;33;20224;-86
2022/01/16 09:50:19;;;;;;;34.67;21.08;;;1.20;79.70;;;-0.25;75.94;97205.25;4081593;33;20220;-86
2022/01/16 09:52:47;;;;;;;34.22;20.10;;;1.20;79.70;;;-0.25;75.95;97204.41;4082613;33;20269;-86
2022/01/16 09:55:13;;;;;;;33.58;21.00;;;1.20;80.50;;;-0.27;75.99;97198.38;4104838;33;20267;-87
2022/01/16 09:57:40;;;;;;;32.20;20.50;;;1.20;79.80;;;-0.26;76.03;97190.13;4103550;33;20282;-85
2022/01/16 10:00:12;;;;;;;30.45;19.67;;;1.20;79.80;;;-0.26;76.08;97192.84;4060204;33;20592;-86
2022/01/16 10:02:44;;;;;;;32.10;19.88;;;1.20;79.80;;;-0.27;76.17;97185.78;4089427;33;20267;-86
2022/01/16 10:05:38;;;;;;;31.77;19.38;;;1.20;79.80;;;-0.28;76.13;97176.03;4106148;33;20507;-86
2022/01/16 10:08:11;;;;;;;30.50;18.23;;;1.20;79.80;;;-0.27;75.81;97176.84;4084291;33;20013;-86
2022/01/16 10:10:42;;;;;;;29.98;19.58;;;1.10;79.80;;;-0.28;75.85;97175.16;4106165;33;20056;-85
2022/01/16 10:13:37;;;;;;;29.38;18.00;;;1.20;79.90;;;-0.30;76.18;97175.34;4108457;33;20067;-85
2022/01/16 10:16:04;;;;;;;32.08;19.52;;;1.10;79.90;;;-0.30;76.33;97167.28;4091498;33;20311;-85
2022/01/16 10:18:41;;;;;;;30.58;18.55;;;1.20;79.80;;;-0.31;76.47;97157.53;4061289;33;20002;-85
2022/01/16 10:21:08;;;;;;;30.77;18.33;;;1.20;79.80;;;-0.33;76.04;97149.66;4063366;33;20220;-85
2022/01/16 10:23:40;;;;;;;28.65;18.45;;;1.10;80.00;;;-0.34;76.44;97150.66;4086263;33;20331;-84
2022/01/16 10:26:22;;;;;;;28.58;17.08;;;1.10;79.90;;;-0.34;76.33;97145.28;4085019;33;20320;-86
2022/01/16 10:28:50;;;;;;;27.00;18.33;;;1.10;79.90;;;-0.35;76.37;97156.19;4083913;33;20139;-85
2022/01/16 10:31:25;;;;;;;27.42;17.83;;;1.10;79.90;;;-0.36;76.28;97147.31;4080955;33;20332;-85
2022/01/16 10:33:54;;;;;;;28.75;17.95;;;1.10;80.00;;;-0.35;76.03;97146.28;4058980;33;20324;-85
2022/01/16 10:36:38;;;;;;;28.67;17.98;;;1.10;80.00;;;-0.35;76.20;97134.69;4059429;33;20273;-86
2022/01/16 10:39:12;;;;;;;26.45;16.73;;;1.10;80.00;;;-0.38;76.28;97143.94;4092266;33;20370;-86
2022/01/16 10:41:38;;;;;;;27.80;16.83;;;1.10;79.90;;;-0.41;76.22;97130.84;4092561;33;20034;-86
2022/01/16 10:44:29;;;;;;;26.98;16.88;;;1.10;80.00;;;-0.39;76.33;97123.44;4070132;33;20330;-85
2022/01/16 10:46:55;;;;;;;24.90;16.38;;;1.10;80.00;;;-0.42;76.11;97121.09;4058797;34;20011;-86
2022/01/16 10:49:22;;;;;;;30.77;17.40;;;1.10;80.00;;;-0.41;76.19;97114.72;4045983;33;20319;-87
2022/01/16 10:52:09;;;;;;;26.88;16.73;;;1.10;80.00;;;-0.41;76.32;97113.88;4047985;33;20280;-86
2022/01/16 10:54:40;;;;;;;27.75;16.35;;;1.10;80.10;;;-0.44;76.30;97107.00;4048535;33;20295;-87
2022/01/16 10:57:27;;;;;;;27.63;15.65;;;1.00;79.90;;;-0.44;76.35;97098.91;4092454;33;20003;-88
2022/01/16 11:00:20;;;;;;;;;;;1.00;79.90;;;-0.45;76.41;97099.94;4048767;33;20081;-86
2022/01/16 11:02:50;;;;;;;26.50;15.43;;;1.00;80.00;;;-0.46;76.09;97098.28;4091857;33;19949;-87
2022/01/16 11:05:19;;;;;;;26.80;16.83;;;1.00;79.90;;;-0.47;76.53;97100.13;4062663;33;20255;-86
2022/01/16 11:07:46;;;;;;;27.95;16.95;;;1.00;79.90;;;-0.49;76.44;97091.38;4032894;33;19986;-85
2022/01/16 11:10:36;;;;;;;24.08;15.73;;;1.00;80.00;;;-0.50;76.51;97089.72;4071445;33;20289;-85